sensor_id;sensor_type;location;lat;lon;timestamp;temperature;humidity
69387;SHT31;56575;48.942;8.404;2023-03-26T00:00:58;8.90;84.05
69387;SHT31;56575;48.942;8.404;2023-03-26T00:03:24;8.90;84.67
69387;SHT31;56575;48.942;8.404;2023-03-26T00:06:12;8.90;84.83
69387;SHT31;56575;48.942;8.404;2023-03-26T00:08:40;8.93;84.68
69387;SHT31;56575;48.942;8.404;2023-03-26T00:11:08;8.93;83.50
69387;SHT31;56575;48.942;8.404;2023-03-26T00:13:34;8.95;84.20
69387;SHT31;56575;48.942;8.404;2023-03-26T00:16:00;8.96;83.98
69387;SHT31;56575;48.942;8.404;2023-03-26T00:18:26;8.97;84.69
69387;SHT31;56575;48.942;8.404;2023-03-26T00:21:01;8.97;84.84
69387;SHT31;56575;48.942;8.404;2023-03-26T00:23:28;8.96;84.98
69387;SHT31;56575;48.942;8.404;2023-03-26T00:25:54;8.93;84.95
69387;SHT31;56575;48.942;8.404;2023-03-26T00:28:21;8.92;85.13
69387;SHT31;56575;48.942;8.404;2023-03-26T00:30:57;8.92;84.49
69387;SHT31;56575;48.942;8.404;2023-03-26T00:33:23;8.92;84.70
69387;SHT31;56575;48.942;8.404;2023-03-26T00:35:53;8.93;84.97
69387;SHT31;56575;48.942;8.404;2023-03-26T00:38:21;8.90;85.11
69387;SHT31;56575;48.942;8.404;2023-03-26T00:40:48;8.93;86.07
69387;SHT31;56575;48.942;8.404;2023-03-26T00:43:15;8.92;87.05
69387;SHT31;56575;48.942;8.404;2023-03-26T00:45:52;8.92;87.39
69387;SHT31;56575;48.942;8.404;2023-03-26T00:48:18;8.87;87.08
69387;SHT31;56575;48.942;8.404;2023-03-26T00:50:45;8.85;87.16
69387;SHT31;56575;48.942;8.404;2023-03-26T00:53:12;8.80;87.68
69387;SHT31;56575;48.942;8.404;2023-03-26T00:55:42;8.85;87.18
69387;SHT31;56575;48.942;8.404;2023-03-26T00:58:10;8.80;86.70
69387;SHT31;56575;48.942;8.404;2023-03-26T01:00:50;8.79;86.13
69387;SHT31;56575;48.942;8.404;2023-03-26T01:03:17;8.76;84.80
69387;SHT31;56575;48.942;8.404;2023-03-26T01:05:57;8.82;86.72
69387;SHT31;56575;48.942;8.404;2023-03-26T01:08:43;8.82;86.40
69387;SHT31;56575;48.942;8.404;2023-03-26T01:11:21;8.79;85.47
69387;SHT31;56575;48.942;8.404;2023-03-26T01:14:07;8.86;85.56
69387;SHT31;56575;48.942;8.404;2023-03-26T01:16:38;8.82;85.63
69387;SHT31;56575;48.942;8.404;2023-03-26T01:19:10;8.82;85.21
69387;SHT31;56575;48.942;8.404;2023-03-26T01:21:37;8.83;85.34
69387;SHT31;56575;48.942;8.404;2023-03-26T01:24:05;8.79;84.06
69387;SHT31;56575;48.942;8.404;2023-03-26T01:32:07;8.79;84.29
69387;SHT31;56575;48.942;8.404;2023-03-26T01:37:36;8.69;83.07
69387;SHT31;56575;48.942;8.404;2023-03-26T01:43:09;8.68;83.84
69387;SHT31;56575;48.942;8.404;2023-03-26T01:45:38;8.75;84.41
69387;SHT31;56575;48.942;8.404;2023-03-26T01:48:06;8.72;85.71
69387;SHT31;56575;48.942;8.404;2023-03-26T01:50:33;8.75;85.21
69387;SHT31;56575;48.942;8.404;2023-03-26T01:52:59;8.79;85.43
69387;SHT31;56575;48.942;8.404;2023-03-26T01:55:36;8.80;85.56
69387;SHT31;56575;48.942;8.404;2023-03-26T02:00:48;8.73;84.84
69387;SHT31;56575;48.942;8.404;2023-03-26T02:03:24;8.76;86.81
69387;SHT31;56575;48.942;8.404;2023-03-26T02:05:58;8.75;84.25
69387;SHT31;56575;48.942;8.404;2023-03-26T02:08:32;8.78;85.24
69387;SHT31;56575;48.942;8.404;2023-03-26T02:11:03;8.76;84.85
69387;SHT31;56575;48.942;8.404;2023-03-26T02:13:30;8.76;85.80
69387;SHT31;56575;48.942;8.404;2023-03-26T02:16:01;8.73;84.44
69387;SHT31;56575;48.942;8.404;2023-03-26T02:18:27;8.75;85.38
69387;SHT31;56575;48.942;8.404;2023-03-26T02:23:34;8.71;85.61
69387;SHT31;56575;48.942;8.404;2023-03-26T02:26:08;8.66;86.44
69387;SHT31;56575;48.942;8.404;2023-03-26T02:28:35;8.65;86.63
69387;SHT31;56575;48.942;8.404;2023-03-26T02:31:00;8.61;87.22
69387;SHT31;56575;48.942;8.404;2023-03-26T02:33:28;8.58;86.85
69387;SHT31;56575;48.942;8.404;2023-03-26T02:35:56;8.55;86.66
69387;SHT31;56575;48.942;8.404;2023-03-26T02:38:27;8.51;86.76
69387;SHT31;56575;48.942;8.404;2023-03-26T02:40:54;8.51;87.62
69387;SHT31;56575;48.942;8.404;2023-03-26T02:43:22;8.48;87.30
69387;SHT31;56575;48.942;8.404;2023-03-26T02:45:48;8.52;86.92
69387;SHT31;56575;48.942;8.404;2023-03-26T02:48:15;8.49;86.96
69387;SHT31;56575;48.942;8.404;2023-03-26T02:50:40;8.47;86.67
69387;SHT31;56575;48.942;8.404;2023-03-26T02:53:06;8.47;86.84
69387;SHT31;56575;48.942;8.404;2023-03-26T02:55:32;8.45;87.26
69387;SHT31;56575;48.942;8.404;2023-03-26T02:57:57;8.42;87.04
69387;SHT31;56575;48.942;8.404;2023-03-26T03:00:23;8.42;87.16
69387;SHT31;56575;48.942;8.404;2023-03-26T03:02:51;8.41;87.58
69387;SHT31;56575;48.942;8.404;2023-03-26T03:05:22;8.47;87.52
69387;SHT31;56575;48.942;8.404;2023-03-26T03:07:51;8.51;87.36
69387;SHT31;56575;48.942;8.404;2023-03-26T03:10:16;8.54;87.71
69387;SHT31;56575;48.942;8.404;2023-03-26T03:12:46;8.54;87.88
69387;SHT31;56575;48.942;8.404;2023-03-26T03:15:12;8.54;87.65
69387;SHT31;56575;48.942;8.404;2023-03-26T03:17:38;8.54;87.55
69387;SHT31;56575;48.942;8.404;2023-03-26T03:20:06;8.55;87.55
69387;SHT31;56575;48.942;8.404;2023-03-26T03:22:34;8.55;87.67
69387;SHT31;56575;48.942;8.404;2023-03-26T03:24:59;8.61;87.58
69387;SHT31;56575;48.942;8.404;2023-03-26T03:27:25;8.58;87.39
69387;SHT31;56575;48.942;8.404;2023-03-26T03:29:51;8.59;87.08
69387;SHT31;56575;48.942;8.404;2023-03-26T03:32:21;8.59;86.59
69387;SHT31;56575;48.942;8.404;2023-03-26T03:34:48;8.54;86.39
69387;SHT31;56575;48.942;8.404;2023-03-26T03:37:18;8.52;86.63
69387;SHT31;56575;48.942;8.404;2023-03-26T03:39:44;8.51;86.52
69387;SHT31;56575;48.942;8.404;2023-03-26T03:42:10;8.51;87.18
69387;SHT31;56575;48.942;8.404;2023-03-26T03:44:36;8.54;87.09
69387;SHT31;56575;48.942;8.404;2023-03-26T03:47:01;8.51;86.84
69387;SHT31;56575;48.942;8.404;2023-03-26T03:49:27;8.55;87.44
69387;SHT31;56575;48.942;8.404;2023-03-26T03:51:52;8.57;86.96
69387;SHT31;56575;48.942;8.404;2023-03-26T03:54:17;8.54;87.23
69387;SHT31;56575;48.942;8.404;2023-03-26T03:56:43;8.52;87.30
69387;SHT31;56575;48.942;8.404;2023-03-26T03:59:10;8.51;87.08
69387;SHT31;56575;48.942;8.404;2023-03-26T04:01:36;8.47;86.90
69387;SHT31;56575;48.942;8.404;2023-03-26T04:04:02;8.49;87.01
69387;SHT31;56575;48.942;8.404;2023-03-26T04:06:28;8.49;87.15
69387;SHT31;56575;48.942;8.404;2023-03-26T04:08:55;8.52;86.81
69387;SHT31;56575;48.942;8.404;2023-03-26T04:11:21;8.54;86.84
69387;SHT31;56575;48.942;8.404;2023-03-26T04:13:47;8.52;86.28
69387;SHT31;56575;48.942;8.404;2023-03-26T04:16:13;8.49;86.30
69387;SHT31;56575;48.942;8.404;2023-03-26T04:18:38;8.51;86.92
69387;SHT31;56575;48.942;8.404;2023-03-26T04:21:05;8.49;86.43
69387;SHT31;56575;48.942;8.404;2023-03-26T04:23:32;8.48;86.33
69387;SHT31;56575;48.942;8.404;2023-03-26T04:26:02;8.49;86.49
69387;SHT31;56575;48.942;8.404;2023-03-26T04:28:32;8.48;86.64
69387;SHT31;56575;48.942;8.404;2023-03-26T04:30:59;8.47;85.73
69387;SHT31;56575;48.942;8.404;2023-03-26T04:33:28;8.47;85.89
69387;SHT31;56575;48.942;8.404;2023-03-26T04:35:55;8.49;86.30
69387;SHT31;56575;48.942;8.404;2023-03-26T04:38:28;8.51;86.09
69387;SHT31;56575;48.942;8.404;2023-03-26T04:40:53;8.54;86.03
69387;SHT31;56575;48.942;8.404;2023-03-26T04:43:24;8.55;85.89
69387;SHT31;56575;48.942;8.404;2023-03-26T04:45:51;8.58;85.01
69387;SHT31;56575;48.942;8.404;2023-03-26T04:48:17;8.62;85.17
69387;SHT31;56575;48.942;8.404;2023-03-26T04:50:43;8.66;85.33
69387;SHT31;56575;48.942;8.404;2023-03-26T04:53:14;8.65;84.11
69387;SHT31;56575;48.942;8.404;2023-03-26T04:55:50;8.69;84.68
69387;SHT31;56575;48.942;8.404;2023-03-26T04:58:19;8.71;84.81
69387;SHT31;56575;48.942;8.404;2023-03-26T05:00:45;8.69;84.10
69387;SHT31;56575;48.942;8.404;2023-03-26T05:03:12;8.72;84.45
69387;SHT31;56575;48.942;8.404;2023-03-26T05:05:38;8.75;84.32
69387;SHT31;56575;48.942;8.404;2023-03-26T05:08:05;8.72;83.94
69387;SHT31;56575;48.942;8.404;2023-03-26T05:10:31;8.71;83.65
69387;SHT31;56575;48.942;8.404;2023-03-26T05:12:56;8.72;83.38
69387;SHT31;56575;48.942;8.404;2023-03-26T05:15:23;8.69;83.70
69387;SHT31;56575;48.942;8.404;2023-03-26T05:17:49;8.61;83.45
69387;SHT31;56575;48.942;8.404;2023-03-26T05:20:21;8.66;84.65
69387;SHT31;56575;48.942;8.404;2023-03-26T05:22:48;8.71;84.55
69387;SHT31;56575;48.942;8.404;2023-03-26T05:25:16;8.71;83.80
69387;SHT31;56575;48.942;8.404;2023-03-26T05:27:42;8.71;83.07
69387;SHT31;56575;48.942;8.404;2023-03-26T05:30:07;8.72;83.69
69387;SHT31;56575;48.942;8.404;2023-03-26T05:32:34;8.75;83.02
69387;SHT31;56575;48.942;8.404;2023-03-26T05:35:00;8.73;82.38
69387;SHT31;56575;48.942;8.404;2023-03-26T05:37:28;8.83;82.02
69387;SHT31;56575;48.942;8.404;2023-03-26T05:39:55;8.86;82.12
69387;SHT31;56575;48.942;8.404;2023-03-26T05:42:21;8.86;81.99
69387;SHT31;56575;48.942;8.404;2023-03-26T05:44:46;8.89;81.78
69387;SHT31;56575;48.942;8.404;2023-03-26T05:47:12;8.89;81.55
69387;SHT31;56575;48.942;8.404;2023-03-26T05:49:37;8.89;82.02
69387;SHT31;56575;48.942;8.404;2023-03-26T05:52:02;8.89;81.97
69387;SHT31;56575;48.942;8.404;2023-03-26T05:54:31;8.90;81.85
69387;SHT31;56575;48.942;8.404;2023-03-26T05:56:58;8.90;81.54
69387;SHT31;56575;48.942;8.404;2023-03-26T05:59:25;8.90;82.31
69387;SHT31;56575;48.942;8.404;2023-03-26T06:01:52;8.90;81.87
69387;SHT31;56575;48.942;8.404;2023-03-26T06:04:19;8.92;81.90
69387;SHT31;56575;48.942;8.404;2023-03-26T06:06:45;8.95;81.84
69387;SHT31;56575;48.942;8.404;2023-03-26T06:09:11;8.93;81.45
69387;SHT31;56575;48.942;8.404;2023-03-26T06:11:38;8.95;81.27
69387;SHT31;56575;48.942;8.404;2023-03-26T06:14:04;8.96;81.11
69387;SHT31;56575;48.942;8.404;2023-03-26T06:16:31;8.97;80.67
69387;SHT31;56575;48.942;8.404;2023-03-26T06:18:58;9.02;80.98
69387;SHT31;56575;48.942;8.404;2023-03-26T06:21:25;9.04;81.73
69387;SHT31;56575;48.942;8.404;2023-03-26T06:23:50;9.04;81.72
69387;SHT31;56575;48.942;8.404;2023-03-26T06:26:16;9.09;82.43
69387;SHT31;56575;48.942;8.404;2023-03-26T06:28:42;9.07;81.42
69387;SHT31;56575;48.942;8.404;2023-03-26T06:31:08;9.02;81.34
69387;SHT31;56575;48.942;8.404;2023-03-26T06:33:33;9.00;81.13
69387;SHT31;56575;48.942;8.404;2023-03-26T06:35:59;8.99;80.07
69387;SHT31;56575;48.942;8.404;2023-03-26T06:38:25;9.10;77.81
69387;SHT31;56575;48.942;8.404;2023-03-26T06:40:50;9.16;78.26
69387;SHT31;56575;48.942;8.404;2023-03-26T06:43:17;9.28;76.59
69387;SHT31;56575;48.942;8.404;2023-03-26T06:45:42;9.30;77.06
69387;SHT31;56575;48.942;8.404;2023-03-26T06:48:08;9.31;79.30
69387;SHT31;56575;48.942;8.404;2023-03-26T06:50:34;9.30;81.01
69387;SHT31;56575;48.942;8.404;2023-03-26T06:53:00;9.23;79.05
69387;SHT31;56575;48.942;8.404;2023-03-26T06:55:26;9.19;84.70
69387;SHT31;56575;48.942;8.404;2023-03-26T06:57:52;9.04;86.97
69387;SHT31;56575;48.942;8.404;2023-03-26T07:00:19;8.93;89.90
69387;SHT31;56575;48.942;8.404;2023-03-26T07:02:45;8.80;95.65
69387;SHT31;56575;48.942;8.404;2023-03-26T07:05:11;8.69;97.87
69387;SHT31;56575;48.942;8.404;2023-03-26T07:07:37;8.52;98.05
69387;SHT31;56575;48.942;8.404;2023-03-26T07:10:03;8.45;99.21
69387;SHT31;56575;48.942;8.404;2023-03-26T07:12:29;8.41;99.99
69387;SHT31;56575;48.942;8.404;2023-03-26T07:14:54;8.40;99.99
69387;SHT31;56575;48.942;8.404;2023-03-26T07:17:19;8.26;99.99
69387;SHT31;56575;48.942;8.404;2023-03-26T07:19:45;8.29;99.99
69387;SHT31;56575;48.942;8.404;2023-03-26T07:22:19;8.26;99.99
69387;SHT31;56575;48.942;8.404;2023-03-26T07:24:45;8.14;99.99
69387;SHT31;56575;48.942;8.404;2023-03-26T07:30:05;8.16;99.99
69387;SHT31;56575;48.942;8.404;2023-03-26T07:32:40;8.09;99.99
69387;SHT31;56575;48.942;8.404;2023-03-26T07:35:09;8.06;99.99
69387;SHT31;56575;48.942;8.404;2023-03-26T07:40:39;8.06;99.99
69387;SHT31;56575;48.942;8.404;2023-03-26T07:43:44;8.02;99.99
69387;SHT31;56575;48.942;8.404;2023-03-26T07:46:13;8.02;99.99
69387;SHT31;56575;48.942;8.404;2023-03-26T07:48:43;8.02;99.99
69387;SHT31;56575;48.942;8.404;2023-03-26T07:51:09;7.96;99.99
69387;SHT31;56575;48.942;8.404;2023-03-26T07:53:35;7.95;99.99
69387;SHT31;56575;48.942;8.404;2023-03-26T07:56:15;8.00;99.99
69387;SHT31;56575;48.942;8.404;2023-03-26T07:59:09;8.00;99.99
69387;SHT31;56575;48.942;8.404;2023-03-26T08:04:46;8.03;99.99
69387;SHT31;56575;48.942;8.404;2023-03-26T08:12:22;7.95;99.99
69387;SHT31;56575;48.942;8.404;2023-03-26T08:15:17;7.90;99.99
69387;SHT31;56575;48.942;8.404;2023-03-26T08:17:51;7.99;99.99
69387;SHT31;56575;48.942;8.404;2023-03-26T08:27:03;8.20;99.99
69387;SHT31;56575;48.942;8.404;2023-03-26T08:31:34;8.45;99.99
69387;SHT31;56575;48.942;8.404;2023-03-26T08:34:00;8.52;99.99
69387;SHT31;56575;48.942;8.404;2023-03-26T08:36:26;8.48;99.99
69387;SHT31;56575;48.942;8.404;2023-03-26T08:38:52;8.44;99.99
69387;SHT31;56575;48.942;8.404;2023-03-26T08:50:19;8.76;99.99
69387;SHT31;56575;48.942;8.404;2023-03-26T09:06:59;9.35;99.99
69387;SHT31;56575;48.942;8.404;2023-03-26T09:10:45;9.31;99.99
69387;SHT31;56575;48.942;8.404;2023-03-26T09:15:48;9.49;99.99
69387;SHT31;56575;48.942;8.404;2023-03-26T09:32:20;10.18;99.99
69387;SHT31;56575;48.942;8.404;2023-03-26T09:40:19;10.49;96.45
69387;SHT31;56575;48.942;8.404;2023-03-26T09:42:58;10.72;90.21
69387;SHT31;56575;48.942;8.404;2023-03-26T09:51:45;11.48;87.43
69387;SHT31;56575;48.942;8.404;2023-03-26T10:02:39;11.86;78.12
69387;SHT31;56575;48.942;8.404;2023-03-26T10:05:35;12.44;76.98
69387;SHT31;56575;48.942;8.404;2023-03-26T10:14:02;12.34;72.21
69387;SHT31;56575;48.942;8.404;2023-03-26T10:19:36;12.58;74.67
69387;SHT31;56575;48.942;8.404;2023-03-26T10:22:13;12.95;72.57
69387;SHT31;56575;48.942;8.404;2023-03-26T10:27:38;13.31;70.91
69387;SHT31;56575;48.942;8.404;2023-03-26T10:35:43;14.61;64.77
69387;SHT31;56575;48.942;8.404;2023-03-26T10:38:28;14.61;60.31
69387;SHT31;56575;48.942;8.404;2023-03-26T10:41:12;14.63;59.65
69387;SHT31;56575;48.942;8.404;2023-03-26T10:44:08;14.81;58.91
69387;SHT31;56575;48.942;8.404;2023-03-26T10:46:52;15.12;59.19
69387;SHT31;56575;48.942;8.404;2023-03-26T10:49:48;15.47;55.39
69387;SHT31;56575;48.942;8.404;2023-03-26T10:52:22;15.26;52.11
69387;SHT31;56575;48.942;8.404;2023-03-26T10:54:58;14.57;53.13
69387;SHT31;56575;48.942;8.404;2023-03-26T10:57:51;15.03;50.87
69387;SHT31;56575;48.942;8.404;2023-03-26T11:00:23;15.24;50.03
69387;SHT31;56575;48.942;8.404;2023-03-26T11:05:34;15.68;48.76
69387;SHT31;56575;48.942;8.404;2023-03-26T11:08:19;15.85;49.06
69387;SHT31;56575;48.942;8.404;2023-03-26T11:16:09;15.96;46.99
69387;SHT31;56575;48.942;8.404;2023-03-26T11:18:47;16.75;47.00
69387;SHT31;56575;48.942;8.404;2023-03-26T11:26:55;16.61;45.76
69387;SHT31;56575;48.942;8.404;2023-03-26T11:32:13;17.30;44.84
69387;SHT31;56575;48.942;8.404;2023-03-26T11:35:18;16.48;45.04
69387;SHT31;56575;48.942;8.404;2023-03-26T11:37:51;17.13;43.48
69387;SHT31;56575;48.942;8.404;2023-03-26T11:40:31;17.54;42.57
69387;SHT31;56575;48.942;8.404;2023-03-26T11:43:01;17.23;42.54
69387;SHT31;56575;48.942;8.404;2023-03-26T11:45:31;16.76;43.22
69387;SHT31;56575;48.942;8.404;2023-03-26T11:48:07;17.64;42.40
69387;SHT31;56575;48.942;8.404;2023-03-26T11:50:40;17.09;43.33
69387;SHT31;56575;48.942;8.404;2023-03-26T11:53:13;17.16;42.98
69387;SHT31;56575;48.942;8.404;2023-03-26T11:55:45;17.60;43.66
69387;SHT31;56575;48.942;8.404;2023-03-26T12:01:03;18.48;39.73
69387;SHT31;56575;48.942;8.404;2023-03-26T12:03:28;19.06;39.12
69387;SHT31;56575;48.942;8.404;2023-03-26T12:05:57;19.19;39.28
69387;SHT31;56575;48.942;8.404;2023-03-26T12:08:33;18.82;39.47
69387;SHT31;56575;48.942;8.404;2023-03-26T12:11:06;17.73;40.44
69387;SHT31;56575;48.942;8.404;2023-03-26T12:13:59;17.77;39.99
69387;SHT31;56575;48.942;8.404;2023-03-26T12:16:56;17.23;39.58
69387;SHT31;56575;48.942;8.404;2023-03-26T12:19:22;17.15;40.88
69387;SHT31;56575;48.942;8.404;2023-03-26T12:21:50;18.56;39.75
69387;SHT31;56575;48.942;8.404;2023-03-26T12:24:31;18.53;38.61
69387;SHT31;56575;48.942;8.404;2023-03-26T12:29:50;18.47;37.37
69387;SHT31;56575;48.942;8.404;2023-03-26T12:32:16;18.46;36.23
69387;SHT31;56575;48.942;8.404;2023-03-26T12:34:42;18.13;37.75
69387;SHT31;56575;48.942;8.404;2023-03-26T12:37:32;17.34;39.29
69387;SHT31;56575;48.942;8.404;2023-03-26T12:40:08;17.88;39.05
69387;SHT31;56575;48.942;8.404;2023-03-26T12:42:58;18.23;39.27
69387;SHT31;56575;48.942;8.404;2023-03-26T12:45:36;17.73;39.75
69387;SHT31;56575;48.942;8.404;2023-03-26T12:48:03;18.71;39.19
69387;SHT31;56575;48.942;8.404;2023-03-26T12:50:35;19.33;37.29
69387;SHT31;56575;48.942;8.404;2023-03-26T13:01:13;18.65;41.04
69387;SHT31;56575;48.942;8.404;2023-03-26T13:06:39;19.67;38.38
69387;SHT31;56575;48.942;8.404;2023-03-26T13:09:14;19.20;39.22
69387;SHT31;56575;48.942;8.404;2023-03-26T13:17:22;16.48;42.01
69387;SHT31;56575;48.942;8.404;2023-03-26T13:19:58;16.14;43.14
69387;SHT31;56575;48.942;8.404;2023-03-26T13:23:08;16.03;44.05
69387;SHT31;56575;48.942;8.404;2023-03-26T13:25:33;15.96;43.75
69387;SHT31;56575;48.942;8.404;2023-03-26T13:30:55;15.50;43.37
69387;SHT31;56575;48.942;8.404;2023-03-26T13:33:33;15.33;43.42
69387;SHT31;56575;48.942;8.404;2023-03-26T13:39:15;14.74;43.18
69387;SHT31;56575;48.942;8.404;2023-03-26T13:41:50;14.68;43.94
69387;SHT31;56575;48.942;8.404;2023-03-26T13:44:37;14.45;44.37
69387;SHT31;56575;48.942;8.404;2023-03-26T13:47:18;14.42;44.87
69387;SHT31;56575;48.942;8.404;2023-03-26T13:53:01;13.99;46.90
69387;SHT31;56575;48.942;8.404;2023-03-26T13:58:47;13.30;56.25
69387;SHT31;56575;48.942;8.404;2023-03-26T14:01:22;13.02;59.61
69387;SHT31;56575;48.942;8.404;2023-03-26T14:04:27;12.44;67.44
69387;SHT31;56575;48.942;8.404;2023-03-26T14:09:41;11.12;72.86
69387;SHT31;56575;48.942;8.404;2023-03-26T14:12:31;10.48;75.50
69387;SHT31;56575;48.942;8.404;2023-03-26T14:15:02;10.38;81.04
69387;SHT31;56575;48.942;8.404;2023-03-26T14:17:44;10.03;83.65
69387;SHT31;56575;48.942;8.404;2023-03-26T14:20:25;9.55;83.76
69387;SHT31;56575;48.942;8.404;2023-03-26T14:26:18;9.03;89.84
69387;SHT31;56575;48.942;8.404;2023-03-26T14:31:29;9.21;93.66
69387;SHT31;56575;48.942;8.404;2023-03-26T14:34:10;9.44;96.37
69387;SHT31;56575;48.942;8.404;2023-03-26T14:37:14;9.49;94.11
69387;SHT31;56575;48.942;8.404;2023-03-26T14:48:13;9.04;90.53
69387;SHT31;56575;48.942;8.404;2023-03-26T14:51:17;9.10;90.95
69387;SHT31;56575;48.942;8.404;2023-03-26T14:53:49;9.07;90.49
69387;SHT31;56575;48.942;8.404;2023-03-26T14:56:45;9.04;90.58
69387;SHT31;56575;48.942;8.404;2023-03-26T15:04:41;8.73;88.39
69387;SHT31;56575;48.942;8.404;2023-03-26T15:07:20;8.82;90.55
69387;SHT31;56575;48.942;8.404;2023-03-26T15:28:16;8.87;89.06
69387;SHT31;56575;48.942;8.404;2023-03-26T15:30:52;8.71;87.33
69387;SHT31;56575;48.942;8.404;2023-03-26T15:42:01;8.82;87.11
69387;SHT31;56575;48.942;8.404;2023-03-26T15:44:50;8.82;87.25
69387;SHT31;56575;48.942;8.404;2023-03-26T15:53:05;9.00;88.98
69387;SHT31;56575;48.942;8.404;2023-03-26T15:55:52;8.95;85.52
69387;SHT31;56575;48.942;8.404;2023-03-26T15:58:27;8.82;85.85
69387;SHT31;56575;48.942;8.404;2023-03-26T16:01:30;8.85;87.58
69387;SHT31;56575;48.942;8.404;2023-03-26T16:04:12;8.93;88.00
69387;SHT31;56575;48.942;8.404;2023-03-26T16:07:33;8.82;86.14
69387;SHT31;56575;48.942;8.404;2023-03-26T16:13:39;8.75;85.99
69387;SHT31;56575;48.942;8.404;2023-03-26T16:15:39;8.65;86.38
69387;SHT31;56575;48.942;8.404;2023-03-26T16:18:14;8.69;86.27
69387;SHT31;56575;48.942;8.404;2023-03-26T16:20:51;8.59;85.90
69387;SHT31;56575;48.942;8.404;2023-03-26T16:28:34;8.75;86.11
69387;SHT31;56575;48.942;8.404;2023-03-26T16:31:21;8.79;86.23
69387;SHT31;56575;48.942;8.404;2023-03-26T16:36:37;8.83;85.71
69387;SHT31;56575;48.942;8.404;2023-03-26T16:41:54;8.86;84.52
69387;SHT31;56575;48.942;8.404;2023-03-26T16:44:38;8.89;84.00
69387;SHT31;56575;48.942;8.404;2023-03-26T16:47:24;8.86;83.90
69387;SHT31;56575;48.942;8.404;2023-03-26T16:50:14;8.86;83.51
69387;SHT31;56575;48.942;8.404;2023-03-26T17:04:19;8.99;82.96
69387;SHT31;56575;48.942;8.404;2023-03-26T17:09:30;9.09;80.95
69387;SHT31;56575;48.942;8.404;2023-03-26T17:19:44;9.04;79.95
69387;SHT31;56575;48.942;8.404;2023-03-26T17:22:32;9.02;79.85
69387;SHT31;56575;48.942;8.404;2023-03-26T17:33:32;8.90;82.91
69387;SHT31;56575;48.942;8.404;2023-03-26T17:41:07;8.44;87.17
69387;SHT31;56575;48.942;8.404;2023-03-26T17:43:47;8.30;87.36
69387;SHT31;56575;48.942;8.404;2023-03-26T17:46:19;8.29;89.59
69387;SHT31;56575;48.942;8.404;2023-03-26T17:48:51;8.17;88.42
69387;SHT31;56575;48.942;8.404;2023-03-26T17:51:33;8.20;88.59
69387;SHT31;56575;48.942;8.404;2023-03-26T17:54:06;8.14;88.03
69387;SHT31;56575;48.942;8.404;2023-03-26T17:56:34;8.13;89.21
69387;SHT31;56575;48.942;8.404;2023-03-26T17:59:02;8.13;89.68
69387;SHT31;56575;48.942;8.404;2023-03-26T18:01:41;8.16;88.52
69387;SHT31;56575;48.942;8.404;2023-03-26T18:04:15;8.13;88.71
69387;SHT31;56575;48.942;8.404;2023-03-26T18:12:54;8.17;88.01
69387;SHT31;56575;48.942;8.404;2023-03-26T18:15:32;8.17;86.88
69387;SHT31;56575;48.942;8.404;2023-03-26T18:18:11;8.19;86.55
69387;SHT31;56575;48.942;8.404;2023-03-26T18:20:38;8.19;84.99
69387;SHT31;56575;48.942;8.404;2023-03-26T18:23:11;8.17;85.40
69387;SHT31;56575;48.942;8.404;2023-03-26T18:25:51;8.16;85.97
69387;SHT31;56575;48.942;8.404;2023-03-26T18:28:18;8.13;84.98
69387;SHT31;56575;48.942;8.404;2023-03-26T18:30:52;8.10;84.97
69387;SHT31;56575;48.942;8.404;2023-03-26T18:33:18;8.04;84.85
69387;SHT31;56575;48.942;8.404;2023-03-26T18:35:49;7.99;85.63
69387;SHT31;56575;48.942;8.404;2023-03-26T18:38:19;7.96;85.79
69387;SHT31;56575;48.942;8.404;2023-03-26T18:40:47;7.87;85.64
69387;SHT31;56575;48.942;8.404;2023-03-26T18:43:18;7.85;85.96
69387;SHT31;56575;48.942;8.404;2023-03-26T18:45:49;7.81;86.35
69387;SHT31;56575;48.942;8.404;2023-03-26T18:48:19;7.75;87.03
69387;SHT31;56575;48.942;8.404;2023-03-26T18:50:50;7.75;87.59
69387;SHT31;56575;48.942;8.404;2023-03-26T18:53:19;7.68;86.83
69387;SHT31;56575;48.942;8.404;2023-03-26T18:55:47;7.64;87.44
69387;SHT31;56575;48.942;8.404;2023-03-26T19:00:56;7.65;86.98
69387;SHT31;56575;48.942;8.404;2023-03-26T19:03:22;7.65;87.02
69387;SHT31;56575;48.942;8.404;2023-03-26T19:05:51;7.58;87.35
69387;SHT31;56575;48.942;8.404;2023-03-26T19:08:17;7.55;86.27
69387;SHT31;56575;48.942;8.404;2023-03-26T19:10:44;7.64;86.25
69387;SHT31;56575;48.942;8.404;2023-03-26T19:13:18;7.65;85.16
69387;SHT31;56575;48.942;8.404;2023-03-26T19:16:02;7.59;85.02
69387;SHT31;56575;48.942;8.404;2023-03-26T19:18:35;7.62;84.06
69387;SHT31;56575;48.942;8.404;2023-03-26T19:21:02;7.65;84.14
69387;SHT31;56575;48.942;8.404;2023-03-26T19:23:35;7.72;84.06
69387;SHT31;56575;48.942;8.404;2023-03-26T19:26:03;7.81;83.00
69387;SHT31;56575;48.942;8.404;2023-03-26T19:28:34;7.78;83.07
69387;SHT31;56575;48.942;8.404;2023-03-26T19:31:33;7.82;82.70
69387;SHT31;56575;48.942;8.404;2023-03-26T19:39:41;7.79;82.39
69387;SHT31;56575;48.942;8.404;2023-03-26T19:42:13;7.76;82.03
69387;SHT31;56575;48.942;8.404;2023-03-26T19:44:40;7.72;82.46
69387;SHT31;56575;48.942;8.404;2023-03-26T19:47:14;7.71;82.57
69387;SHT31;56575;48.942;8.404;2023-03-26T19:49:48;7.69;82.57
69387;SHT31;56575;48.942;8.404;2023-03-26T19:54:59;7.71;82.50
69387;SHT31;56575;48.942;8.404;2023-03-26T19:57:26;7.76;82.35
69387;SHT31;56575;48.942;8.404;2023-03-26T19:59:53;7.78;81.74
69387;SHT31;56575;48.942;8.404;2023-03-26T20:02:19;7.82;82.31
69387;SHT31;56575;48.942;8.404;2023-03-26T20:04:45;7.90;81.45
69387;SHT31;56575;48.942;8.404;2023-03-26T20:07:13;7.87;81.77
69387;SHT31;56575;48.942;8.404;2023-03-26T20:09:41;7.90;81.39
69387;SHT31;56575;48.942;8.404;2023-03-26T20:12:07;7.95;82.03
69387;SHT31;56575;48.942;8.404;2023-03-26T20:14:33;7.93;81.64
69387;SHT31;56575;48.942;8.404;2023-03-26T20:19:39;8.04;81.35
69387;SHT31;56575;48.942;8.404;2023-03-26T20:22:05;8.06;81.14
69387;SHT31;56575;48.942;8.404;2023-03-26T20:24:31;8.07;81.45
69387;SHT31;56575;48.942;8.404;2023-03-26T20:26:57;8.07;81.23
69387;SHT31;56575;48.942;8.404;2023-03-26T20:29:22;8.10;81.11
69387;SHT31;56575;48.942;8.404;2023-03-26T20:31:48;8.16;81.37
69387;SHT31;56575;48.942;8.404;2023-03-26T20:34:17;8.19;81.42
69387;SHT31;56575;48.942;8.404;2023-03-26T20:36:43;8.21;81.44
69387;SHT31;56575;48.942;8.404;2023-03-26T20:39:09;8.21;82.00
69387;SHT31;56575;48.942;8.404;2023-03-26T20:41:42;8.20;82.77
69387;SHT31;56575;48.942;8.404;2023-03-26T20:44:14;8.26;84.56
69387;SHT31;56575;48.942;8.404;2023-03-26T20:46:41;8.27;83.14
69387;SHT31;56575;48.942;8.404;2023-03-26T20:49:07;8.26;85.11
69387;SHT31;56575;48.942;8.404;2023-03-26T20:51:35;8.17;85.32
69387;SHT31;56575;48.942;8.404;2023-03-26T21:02:52;7.82;87.65
69387;SHT31;56575;48.942;8.404;2023-03-26T21:05:25;7.76;88.60
69387;SHT31;56575;48.942;8.404;2023-03-26T21:07:56;7.69;89.73
69387;SHT31;56575;48.942;8.404;2023-03-26T21:10:22;7.64;92.66
69387;SHT31;56575;48.942;8.404;2023-03-26T21:12:59;7.59;91.02